الصفحة الرئيسية
METAR-TAF:

METAR-TAF

مطار :

بورت مورسبي, بابوا نيو غينياالجديدة

دائرة عرض: 09-26S, خط طول: 147-13E, ارتفاع: 38 متر

مراقبة الطقس الحالي

تاريخ ووقت الإصدار 37 دقيقة قبل الساعة 03:00UTC
ريح 15 عقدة من الجنوب/الجنوب الشرقي
درجة الحرارة 30°درجة مئوية
الرطوبة 79%
ضغط 1012 hPa
الرؤية 10 كم أو أكثر
غيوم متفرقة على ارتفاع 1500 قدم
غيوم مفككة على ارتفاع 16000 قدم

METAR: AYPY 270300Z 16015KT 9999 SCT015 BKN160 30/26 Q1012

زمن: 13:37 (03:37 UTC)

توقعات

تاريخ ووقت الإصدار 4ساعات و 57 دقيقة قبل الساعة 22:40UTC
التوقعات صالحة من27 الساعة 00 UTC إلى 28 الساعة 00 UTC
ريح 10 عقدة من الجنوب
الرؤية: 1012 متر
غيوم متفرقة على ارتفاع 1500 قدم
غيوم مفككة على ارتفاع 3000 قدم
غيوم مفككة على ارتفاع 800 قدم
زخات من الأمطار الخفيفة, زخات من المطر الغزيرة

TAF: AYPY 262240Z 2700/2800 17010KT 9999 -SHRA SCT015 BKN030 INTER 2703/2712 4000 +SHRA BKN008 T 30 31 29 27 Q 1014 1013 1011 1012

أرصاد الطقس والتوقعات من أكثر من 4000 مطار (تقارير الطقس للمطار METAR والتنبؤ بالطقس بالمطارTAF).

المحطات المتاحة هي النقط الصفراء والحمراء على الخريطة.

حرك المؤشر فوق النقطة لمعرفة اسم المحطة.

ثم انقر لمعرفة أرصاد وتوقعات الطقس.

لتغيير الخارطة: اضغط على الأزرار الخضراء مع رمز الصليب الأسود للتكبير. على الزر الأخضر مع شرطة للتصغير، أو على الأسهم الخضراء للخرائط المجاورة.


METAR-TAF: